Time;durP1;ratioP1;P1;durP2;ratioP2;P2;SDS_P1;SDS_P2;PMS_P1;PMS_P2;Temp;Humidity;BMP_temperature;BMP_pressure;BME280_temperature;BME280_humidity;BME280_pressure;Samples;Min_cycle;Max_cycle;Signal;HPM_P1;HPM_P2
2022/06/01 00:00:24;;;;;;;5.07;3.70;;;;;;;;;;4988330;28;20685;-61
2022/06/01 00:02:50;;;;;;;4.70;3.40;;;;;;;;;;4995770;28;20190;-60
2022/06/01 00:05:15;;;;;;;3.50;3.20;;;;;;;;;;4987107;28;20230;-60
2022/06/01 00:07:41;;;;;;;3.70;3.40;;;;;;;;;;4985047;28;20653;-61
2022/06/01 00:10:07;;;;;;;3.93;3.30;;;;;;;;;;4984801;28;20941;-59
2022/06/01 00:12:35;;;;;;;4.27;3.43;;;;;;;;;;4986735;28;20668;-60
2022/06/01 00:15:03;;;;;;;3.77;3.47;;;;;;;;;;4984650;28;20213;-60
2022/06/01 00:17:29;;;;;;;3.67;3.13;;;;;;;;;;4990166;28;20198;-60
2022/06/01 00:19:54;;;;;;;4.30;3.67;;;;;;;;;;4986845;28;20189;-60
2022/06/01 00:22:20;;;;;;;5.17;3.63;;;;;;;;;;4988993;28;20194;-60
2022/06/01 00:24:47;;;;;;;4.50;3.20;;;;;;;;;;4994592;28;20258;-61
2022/06/01 00:27:13;;;;;;;3.73;3.33;;;;;;;;;;4982395;28;20217;-61
2022/06/01 00:29:39;;;;;;;6.03;3.97;;;;;;;;;;4981944;28;20186;-60
2022/06/01 00:32:05;;;;;;;3.93;3.50;;;;;;;;;;4988122;28;20220;-61
2022/06/01 00:34:31;;;;;;;3.70;3.40;;;;;;;;;;4996507;28;20197;-60
2022/06/01 00:36:57;;;;;;;7.07;3.63;;;;;;;;;;4992768;28;20611;-60
2022/06/01 00:39:23;;;;;;;4.13;3.13;;;;;;;;;;4989408;28;20194;-60
2022/06/01 00:41:49;;;;;;;3.67;3.30;;;;;;;;;;4990229;28;20486;-61
2022/06/01 00:44:15;;;;;;;4.77;3.53;;;;;;;;;;4988796;28;20179;-60
2022/06/01 00:46:41;;;;;;;3.40;3.10;;;;;;;;;;4991215;28;20613;-60
2022/06/01 00:49:14;;;;;;;3.50;3.20;;;;;;;;;;4991404;28;20191;-60
2022/06/01 00:51:40;;;;;;;3.90;3.50;;;;;;;;;;4991926;28;21521;-60
2022/06/01 00:54:06;;;;;;;5.63;3.63;;;;;;;;;;4992446;28;20188;-61
2022/06/01 00:56:33;;;;;;;3.87;3.50;;;;;;;;;;4989627;28;20226;-60
2022/06/01 00:59:00;;;;;;;3.77;3.40;;;;;;;;;;5000481;28;20285;-60
2022/06/01 01:01:26;;;;;;;3.97;3.53;;;;;;;;;;4990699;28;20212;-60
2022/06/01 01:03:53;;;;;;;3.70;3.40;;;;;;;;;;5000260;28;20234;-60
2022/06/01 01:06:21;;;;;;;3.70;3.40;;;;;;;;;;4987624;28;20182;-59
2022/06/01 01:08:47;;;;;;;4.73;3.60;;;;;;;;;;4991481;28;20202;-59
2022/06/01 01:11:13;;;;;;;5.73;3.37;;;;;;;;;;4986670;28;20863;-59
2022/06/01 01:13:40;;;;;;;3.97;3.57;;;;;;;;;;4993219;28;20186;-59
2022/06/01 01:16:06;;;;;;;4.73;3.03;;;;;;;;;;4996528;28;20276;-59
2022/06/01 01:18:35;;;;;;;4.10;3.70;;;;;;;;;;4997005;28;20329;-59
2022/06/01 01:21:01;;;;;;;4.00;3.30;;;;;;;;;;4996395;28;20192;-59
2022/06/01 01:23:46;;;;;;;5.17;3.67;;;;;;;;;;4991242;28;20224;-60
2022/06/01 01:26:12;;;;;;;5.87;3.80;;;;;;;;;;4984127;28;20781;-59
2022/06/01 01:28:38;;;;;;;6.37;3.70;;;;;;;;;;4993114;28;20297;-59
2022/06/01 01:31:16;;;;;;;5.17;3.73;;;;;;;;;;4989383;28;20256;-60
2022/06/01 01:33:42;;;;;;;5.57;3.73;;;;;;;;;;4990835;28;20197;-60
2022/06/01 01:36:10;;;;;;;6.30;3.90;;;;;;;;;;4989418;28;20189;-60
2022/06/01 01:38:44;;;;;;;4.83;3.60;;;;;;;;;;4994358;28;20224;-59
2022/06/01 01:41:30;;;;;;;5.37;3.87;;;;;;;;;;4996732;28;20282;-60
2022/06/01 01:44:05;;;;;;;4.57;3.63;;;;;;;;;;4982624;28;20670;-60
2022/06/01 01:46:31;;;;;;;10.03;4.03;;;;;;;;;;4983987;28;20197;-59
2022/06/01 01:48:57;;;;;;;4.00;3.67;;;;;;;;;;4993943;28;20209;-59
2022/06/01 01:51:23;;;;;;;3.70;3.40;;;;;;;;;;4991848;28;20245;-60
2022/06/01 01:53:49;;;;;;;6.37;3.50;;;;;;;;;;4997025;28;20197;-60
2022/06/01 01:56:26;;;;;;;4.03;3.13;;;;;;;;;;4991569;28;20178;-59
2022/06/01 01:58:52;;;;;;;7.13;3.80;;;;;;;;;;4985911;28;20186;-59
2022/06/01 02:01:21;;;;;;;4.83;3.30;;;;;;;;;;4986283;28;20204;-59
2022/06/01 02:03:48;;;;;;;4.67;3.77;;;;;;;;;;4997831;28;20341;-59
2022/06/01 02:06:24;;;;;;;5.73;3.37;;;;;;;;;;4987371;28;20193;-59
2022/06/01 02:08:50;;;;;;;7.83;3.60;;;;;;;;;;4994511;28;20252;-59
2022/06/01 02:14:04;;;;;;;4.70;3.13;;;;;;;;;;4991974;28;20200;-60
2022/06/01 02:16:33;;;;;;;5.57;2.90;;;;;;;;;;4987752;28;20224;-60
2022/06/01 02:18:59;;;;;;;4.00;3.03;;;;;;;;;;4995268;28;21325;-60
2022/06/01 02:21:25;;;;;;;3.87;3.10;;;;;;;;;;4990896;28;20205;-60
2022/06/01 02:23:51;;;;;;;5.13;3.67;;;;;;;;;;4992684;28;21079;-59
2022/06/01 02:26:18;;;;;;;3.37;3.07;;;;;;;;;;4987665;28;20186;-60
2022/06/01 02:28:44;;;;;;;3.23;2.83;;;;;;;;;;4985614;28;20271;-60
2022/06/01 02:31:10;;;;;;;4.43;3.27;;;;;;;;;;4982512;28;20209;-59
2022/06/01 02:33:36;;;;;;;4.63;2.90;;;;;;;;;;4992462;28;20201;-59
2022/06/01 02:36:03;;;;;;;5.10;3.70;;;;;;;;;;4992200;28;20293;-59
2022/06/01 02:38:30;;;;;;;5.67;2.93;;;;;;;;;;4991707;28;20187;-60
2022/06/01 02:40:56;;;;;;;3.93;3.33;;;;;;;;;;4994069;28;20554;-59
2022/06/01 02:43:23;;;;;;;4.03;2.87;;;;;;;;;;4988881;28;20194;-59
2022/06/01 02:45:48;;;;;;;3.27;2.97;;;;;;;;;;4982427;28;20199;-60
2022/06/01 02:48:14;;;;;;;5.23;3.20;;;;;;;;;;4986265;28;20255;-60
2022/06/01 02:50:40;;;;;;;4.13;2.87;;;;;;;;;;4992895;28;20210;-60
2022/06/01 02:53:06;;;;;;;2.90;2.60;;;;;;;;;;4984638;28;20190;-60
2022/06/01 02:55:32;;;;;;;2.80;2.60;;;;;;;;;;4973050;28;20328;-59
2022/06/01 02:57:58;;;;;;;3.57;2.67;;;;;;;;;;4982178;28;20508;-60
2022/06/01 03:00:29;;;;;;;3.53;3.10;;;;;;;;;;4979680;28;20193;-59
2022/06/01 03:02:55;;;;;;;3.93;2.80;;;;;;;;;;4989767;28;20217;-59
2022/06/01 03:05:23;;;;;;;3.20;2.90;;;;;;;;;;4991607;28;20321;-60
2022/06/01 03:07:49;;;;;;;3.57;2.60;;;;;;;;;;4987220;28;20284;-60
2022/06/01 03:10:15;;;;;;;4.00;2.70;;;;;;;;;;4976573;28;20709;-60
2022/06/01 03:12:41;;;;;;;4.77;3.10;;;;;;;;;;4983900;28;20248;-60
2022/06/01 03:15:08;;;;;;;4.47;3.00;;;;;;;;;;4983328;28;20248;-60
2022/06/01 03:17:34;;;;;;;5.57;3.07;;;;;;;;;;4982380;28;20190;-60
2022/06/01 03:20:00;;;;;;;3.03;2.63;;;;;;;;;;4983978;28;21669;-59
2022/06/01 03:22:26;;;;;;;4.77;3.00;;;;;;;;;;4983800;28;20781;-60
2022/06/01 03:24:52;;;;;;;4.00;2.80;;;;;;;;;;4989614;28;20197;-60
2022/06/01 03:27:18;;;;;;;3.47;2.77;;;;;;;;;;4986761;28;20351;-60
2022/06/01 03:29:45;;;;;;;3.83;2.93;;;;;;;;;;4989048;28;20217;-60
2022/06/01 03:32:11;;;;;;;3.33;2.60;;;;;;;;;;4985022;28;20224;-60
2022/06/01 03:34:37;;;;;;;3.30;2.90;;;;;;;;;;4989802;28;20627;-60
2022/06/01 03:37:03;;;;;;;2.90;2.60;;;;;;;;;;4989652;28;20185;-60
2022/06/01 03:39:29;;;;;;;4.13;2.83;;;;;;;;;;4990397;28;20187;-60
2022/06/01 03:41:55;;;;;;;3.73;2.53;;;;;;;;;;4990442;28;20201;-59
2022/06/01 03:47:09;;;;;;;5.40;2.50;;;;;;;;;;4986187;28;20734;-59
2022/06/01 03:49:35;;;;;;;2.93;2.70;;;;;;;;;;4991587;28;20558;-60
2022/06/01 03:52:01;;;;;;;2.83;2.40;;;;;;;;;;4987607;28;20209;-60
2022/06/01 03:54:26;;;;;;;4.70;2.80;;;;;;;;;;4986182;28;20202;-60
2022/06/01 03:56:52;;;;;;;6.70;2.77;;;;;;;;;;4992448;28;20216;-59
2022/06/01 03:59:18;;;;;;;5.77;2.87;;;;;;;;;;4996831;28;20605;-60
2022/06/01 04:01:44;;;;;;;3.03;2.43;;;;;;;;;;4985870;28;20592;-60
2022/06/01 04:04:10;;;;;;;3.63;2.23;;;;;;;;;;4992737;28;20646;-60
2022/06/01 04:06:36;;;;;;;3.30;2.80;;;;;;;;;;4994860;28;20267;-59
2022/06/01 04:09:02;;;;;;;3.17;2.70;;;;;;;;;;4991343;28;20189;-59
2022/06/01 04:11:28;;;;;;;3.93;2.97;;;;;;;;;;4989768;28;20233;-60
2022/06/01 04:13:54;;;;;;;3.50;2.40;;;;;;;;;;4990662;28;20666;-59
2022/06/01 04:16:20;;;;;;;4.17;3.00;;;;;;;;;;4985818;28;20202;-59
2022/06/01 04:18:46;;;;;;;3.10;2.80;;;;;;;;;;4991258;28;20205;-59
2022/06/01 04:21:12;;;;;;;2.73;2.50;;;;;;;;;;4990661;28;20256;-60
2022/06/01 04:23:38;;;;;;;5.37;2.57;;;;;;;;;;4991789;28;20647;-60
2022/06/01 04:26:04;;;;;;;3.53;2.93;;;;;;;;;;4981181;28;20770;-60
2022/06/01 04:28:30;;;;;;;3.27;2.60;;;;;;;;;;4976117;28;20229;-60
2022/06/01 04:30:56;;;;;;;4.37;2.80;;;;;;;;;;4973983;28;20212;-59
2022/06/01 04:33:22;;;;;;;4.13;2.80;;;;;;;;;;4982073;28;20809;-60
2022/06/01 04:35:48;;;;;;;2.83;2.63;;;;;;;;;;4984301;28;20192;-59
2022/06/01 04:38:14;;;;;;;2.60;2.40;;;;;;;;;;4987173;28;20236;-61
2022/06/01 04:40:43;;;;;;;3.07;2.77;;;;;;;;;;4977607;28;20183;-59
2022/06/01 04:43:09;;;;;;;3.23;2.63;;;;;;;;;;4983294;28;20197;-59
2022/06/01 04:45:35;;;;;;;2.87;2.67;;;;;;;;;;4983928;28;20190;-59
2022/06/01 04:48:01;;;;;;;7.53;2.67;;;;;;;;;;4968680;28;20681;-60
2022/06/01 04:50:27;;;;;;;2.90;2.60;;;;;;;;;;4979887;28;20801;-60
2022/06/01 04:52:53;;;;;;;3.83;2.53;;;;;;;;;;4992861;28;20210;-59
2022/06/01 04:55:19;;;;;;;8.67;2.90;;;;;;;;;;4990834;28;20659;-59
2022/06/01 04:57:45;;;;;;;3.17;2.80;;;;;;;;;;4990871;28;20196;-59
2022/06/01 05:00:11;;;;;;;3.20;2.90;;;;;;;;;;4980848;28;20193;-58
2022/06/01 05:02:37;;;;;;;3.30;3.00;;;;;;;;;;4982854;28;20248;-59
2022/06/01 05:05:03;;;;;;;4.37;3.17;;;;;;;;;;4985494;28;20759;-59
2022/06/01 05:07:29;;;;;;;3.77;3.13;;;;;;;;;;4993539;28;20237;-60
2022/06/01 05:09:55;;;;;;;3.47;3.00;;;;;;;;;;4994971;28;20213;-58
2022/06/01 05:12:21;;;;;;;3.23;2.90;;;;;;;;;;4990701;28;20226;-60
2022/06/01 05:14:47;;;;;;;4.47;2.67;;;;;;;;;;4987264;28;20189;-58
2022/06/01 05:17:13;;;;;;;3.57;2.87;;;;;;;;;;4984021;28;20185;-58
2022/06/01 05:19:39;;;;;;;4.57;3.43;;;;;;;;;;4985552;28;20185;-60
2022/06/01 05:22:05;;;;;;;5.13;3.70;;;;;;;;;;4992628;28;20277;-59
2022/06/01 05:24:31;;;;;;;4.47;3.67;;;;;;;;;;4994287;28;20249;-59
2022/06/01 05:26:57;;;;;;;5.63;3.70;;;;;;;;;;4996239;28;20181;-58
2022/06/01 05:29:23;;;;;;;5.63;3.77;;;;;;;;;;4995116;28;20255;-58
2022/06/01 05:31:49;;;;;;;4.40;4.00;;;;;;;;;;4992675;28;20655;-60
2022/06/01 05:34:15;;;;;;;5.27;3.77;;;;;;;;;;4993422;28;20208;-58
2022/06/01 05:36:41;;;;;;;5.17;3.40;;;;;;;;;;4987066;28;20245;-58
2022/06/01 05:39:07;;;;;;;4.77;3.43;;;;;;;;;;4990889;28;20599;-58
2022/06/01 05:41:34;;;;;;;3.63;3.33;;;;;;;;;;4997630;28;20190;-58
2022/06/01 05:43:59;;;;;;;4.00;3.23;;;;;;;;;;4997322;28;20185;-57
2022/06/01 05:46:26;;;;;;;5.37;2.80;;;;;;;;;;4997059;28;20689;-59
2022/06/01 05:48:52;;;;;;;4.67;2.97;;;;;;;;;;4996350;28;20228;-59
2022/06/01 05:51:18;;;;;;;5.47;3.57;;;;;;;;;;4996392;28;20313;-59
2022/06/01 05:53:44;;;;;;;3.33;2.97;;;;;;;;;;4998250;28;20280;-58
2022/06/01 05:56:10;;;;;;;3.30;3.00;;;;;;;;;;4994487;28;20294;-59
2022/06/01 05:58:36;;;;;;;3.23;2.93;;;;;;;;;;4995522;28;20264;-59
2022/06/01 06:01:04;;;;;;;5.67;3.00;;;;;;;;;;4996739;28;20190;-59
2022/06/01 06:03:30;;;;;;;3.10;2.90;;;;;;;;;;4995168;28;20194;-59
2022/06/01 06:08:45;;;;;;;6.43;3.10;;;;;;;;;;4995890;28;20237;-59
2022/06/01 06:11:11;;;;;;;3.47;2.83;;;;;;;;;;4997570;28;20667;-59
2022/06/01 06:13:37;;;;;;;6.27;3.33;;;;;;;;;;4997477;28;20233;-59
2022/06/01 06:16:04;;;;;;;5.70;3.30;;;;;;;;;;4994218;28;20222;-58
2022/06/01 06:18:30;;;;;;;3.27;2.90;;;;;;;;;;5000175;28;20285;-59
2022/06/01 06:20:56;;;;;;;3.93;2.80;;;;;;;;;;4994358;28;20190;-59
2022/06/01 06:23:21;;;;;;;6.33;2.73;;;;;;;;;;4998201;28;20707;-59
2022/06/01 06:25:48;;;;;;;4.50;3.07;;;;;;;;;;4993894;28;20194;-58
2022/06/01 06:28:14;;;;;;;5.30;2.67;;;;;;;;;;4993294;28;20218;-58
2022/06/01 06:30:40;;;;;;;4.10;2.60;;;;;;;;;;4991701;28;20194;-59
2022/06/01 06:33:06;;;;;;;4.47;2.50;;;;;;;;;;4984520;28;20202;-58
2022/06/01 06:35:32;;;;;;;5.63;2.73;;;;;;;;;;4991478;28;20186;-59
2022/06/01 06:37:58;;;;;;;4.57;2.60;;;;;;;;;;4991046;28;20188;-59
2022/06/01 06:40:24;;;;;;;5.23;2.73;;;;;;;;;;4991652;28;20586;-59
2022/06/01 06:42:51;;;;;;;4.50;2.37;;;;;;;;;;4993517;28;20193;-57
2022/06/01 06:45:17;;;;;;;5.43;2.60;;;;;;;;;;4992219;28;20233;-58
2022/06/01 06:47:43;;;;;;;3.90;2.30;;;;;;;;;;4992809;28;20193;-59
2022/06/01 06:50:09;;;;;;;4.57;2.20;;;;;;;;;;4989623;28;20197;-58
2022/06/01 06:52:35;;;;;;;3.47;2.47;;;;;;;;;;4994939;28;20210;-58
2022/06/01 06:55:02;;;;;;;3.60;2.33;;;;;;;;;;4992194;28;20204;-60
2022/06/01 06:57:28;;;;;;;2.93;2.10;;;;;;;;;;4995964;28;20572;-58
2022/06/01 06:59:54;;;;;;;4.97;1.93;;;;;;;;;;4990944;28;20332;-58
2022/06/01 07:02:20;;;;;;;3.13;2.40;;;;;;;;;;4991991;28;20641;-59
2022/06/01 07:04:47;;;;;;;3.43;2.00;;;;;;;;;;4988377;28;20240;-60
2022/06/01 07:07:13;;;;;;;6.30;2.20;;;;;;;;;;4994434;28;20232;-60
2022/06/01 07:09:39;;;;;;;4.90;2.23;;;;;;;;;;4998204;28;20564;-59
2022/06/01 07:12:05;;;;;;;2.47;1.90;;;;;;;;;;4995992;28;21814;-59
2022/06/01 07:14:31;;;;;;;2.67;2.17;;;;;;;;;;5002483;28;20849;-60
2022/06/01 07:17:00;;;;;;;4.07;2.10;;;;;;;;;;4993901;28;20225;-59
2022/06/01 07:19:26;;;;;;;4.20;2.20;;;;;;;;;;4995245;28;20651;-59
2022/06/01 07:21:52;;;;;;;2.47;1.90;;;;;;;;;;4995589;28;20193;-59
2022/06/01 07:24:18;;;;;;;2.53;2.00;;;;;;;;;;4995158;28;20188;-59
2022/06/01 07:26:44;;;;;;;3.97;2.30;;;;;;;;;;4990376;28;20248;-59
2022/06/01 07:29:11;;;;;;;3.07;2.10;;;;;;;;;;4987765;28;20178;-59
2022/06/01 07:31:37;;;;;;;2.73;1.67;;;;;;;;;;4992333;28;20256;-59
2022/06/01 07:34:03;;;;;;;3.13;1.60;;;;;;;;;;4998261;28;20210;-59
2022/06/01 07:36:29;;;;;;;3.73;2.10;;;;;;;;;;4996538;28;20186;-59
2022/06/01 07:44:21;;;;;;;5.57;2.50;;;;;;;;;;4997717;28;20666;-60
2022/06/01 07:46:47;;;;;;;3.50;2.17;;;;;;;;;;4997139;28;20189;-59
2022/06/01 07:49:13;;;;;;;4.28;2.40;;;;;;;;;;4998515;28;20190;-60
2022/06/01 07:51:40;;;;;;;3.35;1.88;;;;;;;;;;4995464;28;20224;-60
2022/06/01 07:54:06;;;;;;;2.65;1.75;;;;;;;;;;4997496;28;20602;-60
2022/06/01 07:56:32;;;;;;;3.50;1.80;;;;;;;;;;4994551;28;20213;-59
2022/06/01 07:58:58;;;;;;;2.88;1.75;;;;;;;;;;4993813;28;20698;-60
2022/06/01 08:01:27;;;;;;;3.20;1.80;;;;;;;;;;4997142;28;20249;-60
2022/06/01 08:03:54;;;;;;;3.70;2.58;;;;;;;;;;4985614;28;20280;-59
2022/06/01 08:06:20;;;;;;;4.22;2.92;;;;;;;;;;4986343;28;20264;-59
2022/06/01 08:08:46;;;;;;;2.78;2.35;;;;;;;;;;4995647;28;20198;-60
2022/06/01 08:11:12;;;;;;;2.97;1.75;;;;;;;;;;4996311;28;20252;-60
2022/06/01 08:13:37;;;;;;;3.17;2.05;;;;;;;;;;4999115;28;20308;-59
2022/06/01 08:16:04;;;;;;;3.10;2.03;;;;;;;;;;4995637;28;20224;-60
2022/06/01 08:18:30;;;;;;;2.28;1.70;;;;;;;;;;4995769;28;20219;-59
2022/06/01 08:20:56;;;;;;;2.42;1.60;;;;;;;;;;4996106;28;20256;-60
2022/06/01 08:23:22;;;;;;;3.95;1.70;;;;;;;;;;4993463;28;20178;-60
2022/06/01 08:25:49;;;;;;;5.15;2.03;;;;;;;;;;4996305;28;20647;-59
2022/06/01 08:28:15;;;;;;;3.38;1.98;;;;;;;;;;4999539;28;20259;-61
2022/06/01 08:30:41;;;;;;;2.75;1.85;;;;;;;;;;4994978;28;20186;-59
2022/06/01 08:33:07;;;;;;;2.20;2.00;;;;;;;;;;4996807;28;20186;-59
2022/06/01 08:35:35;;;;;;;2.08;1.80;;;;;;;;;;5002503;28;20189;-59
2022/06/01 08:38:01;;;;;;;1.95;1.60;;;;;;;;;;4998209;28;20177;-59
2022/06/01 08:40:29;;;;;;;2.13;1.88;;;;;;;;;;4999101;28;20866;-59
2022/06/01 08:42:57;;;;;;;2.17;1.98;;;;;;;;;;4996437;28;20189;-59
2022/06/01 08:45:24;;;;;;;2.85;1.90;;;;;;;;;;4996571;28;20674;-59
2022/06/01 08:47:50;;;;;;;1.90;1.75;;;;;;;;;;4998425;28;20173;-60
2022/06/01 08:50:25;;;;;;;3.20;2.28;;;;;;;;;;4996974;28;20546;-59
2022/06/01 08:52:51;;;;;;;3.75;1.90;;;;;;;;;;4986616;28;20213;-59
2022/06/01 08:55:17;;;;;;;2.55;1.88;;;;;;;;;;4992532;28;20648;-59
2022/06/01 08:57:48;;;;;;;2.47;1.80;;;;;;;;;;4996587;28;20190;-59
2022/06/01 09:00:15;;;;;;;3.03;2.30;;;;;;;;;;4992687;28;20720;-59
2022/06/01 09:03:00;;;;;;;1.88;1.67;;;;;;;;;;5002158;28;20201;-60
2022/06/01 09:05:41;;;;;;;3.67;1.77;;;;;;;;;;4991384;28;20238;-59
2022/06/01 09:08:25;;;;;;;3.85;1.80;;;;;;;;;;4997164;28;20656;-59
2022/06/01 09:10:55;;;;;;;2.42;1.83;;;;;;;;;;4996589;28;20232;-59
2022/06/01 09:13:25;;;;;;;2.10;1.75;;;;;;;;;;4995002;28;20182;-58
2022/06/01 09:15:52;;;;;;;2.75;1.80;;;;;;;;;;4995418;28;20189;-58
2022/06/01 09:18:19;;;;;;;2.40;1.83;;;;;;;;;;5000378;28;20188;-58
2022/06/01 09:23:29;;;;;;;2.05;1.85;;;;;;;;;;4991696;28;21560;-58
2022/06/01 09:25:56;;;;;;;2.00;1.80;;;;;;;;;;4994551;28;20750;-59
2022/06/01 09:28:26;;;;;;;2.33;1.60;;;;;;;;;;5000125;28;20249;-59
2022/06/01 09:30:56;;;;;;;3.05;1.90;;;;;;;;;;4994640;28;20181;-60
2022/06/01 09:33:35;;;;;;;3.67;1.90;;;;;;;;;;4994965;28;20631;-59
2022/06/01 09:36:01;;;;;;;2.05;1.92;;;;;;;;;;4995404;28;20185;-60
2022/06/01 09:38:51;;;;;;;3.00;1.80;;;;;;;;;;4995732;28;20201;-59
2022/06/01 09:41:21;;;;;;;2.63;1.88;;;;;;;;;;4995117;28;20174;-59
2022/06/01 09:43:54;;;;;;;4.15;2.15;;;;;;;;;;4991353;28;20186;-60
2022/06/01 09:46:34;;;;;;;1.80;1.70;;;;;;;;;;4993356;28;20236;-59
2022/06/01 09:49:01;;;;;;;2.90;1.80;;;;;;;;;;4995494;28;20181;-58
2022/06/01 09:51:27;;;;;;;2.78;1.85;;;;;;;;;;4992763;28;20206;-60
2022/06/01 09:53:54;;;;;;;2.40;1.60;;;;;;;;;;4992427;28;20220;-60
2022/06/01 09:56:32;;;;;;;2.00;1.88;;;;;;;;;;4995422;28;20228;-59
2022/06/01 10:07:31;;;;;;;4.10;1.77;;;;;;;;;;4996326;28;20243;-60
2022/06/01 10:09:58;;;;;;;3.33;1.92;;;;;;;;;;4990463;28;20190;-60
2022/06/01 10:12:35;;;;;;;3.72;1.85;;;;;;;;;;4989964;28;20578;-59
2022/06/01 10:15:02;;;;;;;3.10;1.95;;;;;;;;;;4994960;28;20193;-60
2022/06/01 10:17:33;;;;;;;4.00;1.77;;;;;;;;;;4998290;28;20201;-61
2022/06/01 10:20:04;;;;;;;3.42;1.98;;;;;;;;;;4996719;28;20710;-60
2022/06/01 10:22:34;;;;;;;2.17;1.65;;;;;;;;;;4998639;28;20738;-60
2022/06/01 10:25:04;;;;;;;5.85;1.77;;;;;;;;;;4990175;28;20281;-60
2022/06/01 10:27:51;;;;;;;2.40;1.90;;;;;;;;;;5000956;28;20214;-60
2022/06/01 10:30:21;;;;;;;2.05;1.50;;;;;;;;;;4993193;28;20260;-59
2022/06/01 10:32:50;;;;;;;1.83;1.73;;;;;;;;;;4995213;28;20289;-59
2022/06/01 10:35:18;;;;;;;3.15;1.80;;;;;;;;;;4991284;28;20205;-60
2022/06/01 10:37:50;;;;;;;3.97;1.70;;;;;;;;;;4997488;28;20183;-60
2022/06/01 10:40:42;;;;;;;2.22;1.80;;;;;;;;;;4992280;28;20237;-59
2022/06/01 10:43:34;;;;;;;1.83;1.73;;;;;;;;;;4983726;28;20210;-60
2022/06/01 10:46:05;;;;;;;2.25;1.80;;;;;;;;;;4985023;28;20209;-58
2022/06/01 10:48:31;;;;;;;4.10;1.75;;;;;;;;;;4992285;28;20193;-60
2022/06/01 10:50:57;;;;;;;1.50;1.40;;;;;;;;;;4996644;28;20663;-60
2022/06/01 10:53:29;;;;;;;1.45;1.10;;;;;;;;;;4993321;28;20224;-60
2022/06/01 10:55:55;;;;;;;2.20;1.38;;;;;;;;;;4991028;28;20192;-60
2022/06/01 10:58:22;;;;;;;2.08;1.48;;;;;;;;;;4990613;28;20182;-60
2022/06/01 11:00:50;;;;;;;3.15;1.67;;;;;;;;;;4994794;28;20540;-59
2022/06/01 11:03:32;;;;;;;2.00;1.30;;;;;;;;;;4989460;28;20189;-60
2022/06/01 11:06:11;;;;;;;3.35;1.50;;;;;;;;;;4997337;28;20742;-60
2022/06/01 11:08:47;;;;;;;2.20;1.15;;;;;;;;;;4989725;28;20189;-60
2022/06/01 11:11:18;;;;;;;1.83;1.50;;;;;;;;;;4995751;28;20221;-61
2022/06/01 11:13:46;;;;;;;1.40;1.20;;;;;;;;;;4993261;28;20268;-59
2022/06/01 11:16:33;;;;;;;2.33;1.40;;;;;;;;;;4992719;28;20311;-60
2022/06/01 11:19:18;;;;;;;2.33;1.40;;;;;;;;;;4999057;28;20200;-60
2022/06/01 11:21:47;;;;;;;2.33;1.45;;;;;;;;;;4993438;28;20200;-60
2022/06/01 11:24:20;;;;;;;1.75;1.50;;;;;;;;;;4988824;28;20189;-59
2022/06/01 11:27:09;;;;;;;1.40;1.23;;;;;;;;;;4992305;28;20655;-60
2022/06/01 11:29:41;;;;;;;2.38;1.45;;;;;;;;;;4994796;28;20288;-59
2022/06/01 11:32:09;;;;;;;2.05;1.50;;;;;;;;;;4995364;28;20760;-60
2022/06/01 11:34:36;;;;;;;1.52;1.42;;;;;;;;;;4990800;28;20177;-59
2022/06/01 11:37:28;;;;;;;2.47;1.40;;;;;;;;;;4994114;28;20181;-60
2022/06/01 11:39:57;;;;;;;1.40;1.30;;;;;;;;;;4992975;28;20284;-59
2022/06/01 11:42:28;;;;;;;1.85;1.48;;;;;;;;;;4989345;28;20190;-60
2022/06/01 11:44:59;;;;;;;2.58;1.80;;;;;;;;;;4979042;28;20187;-60
2022/06/01 11:47:25;;;;;;;4.13;1.83;;;;;;;;;;4983047;28;20200;-60
2022/06/01 11:50:10;;;;;;;2.63;1.80;;;;;;;;;;4989525;28;20300;-59
2022/06/01 11:53:05;;;;;;;2.33;1.50;;;;;;;;;;4984357;28;20208;-58
2022/06/01 11:55:34;;;;;;;2.67;1.75;;;;;;;;;;4970446;28;20252;-59
2022/06/01 11:58:14;;;;;;;2.78;1.85;;;;;;;;;;4994489;28;20674;-59
2022/06/01 12:00:41;;;;;;;2.25;1.90;;;;;;;;;;4990252;28;20186;-59
2022/06/01 12:03:16;;;;;;;2.88;2.00;;;;;;;;;;4995317;28;20240;-60
2022/06/01 12:05:57;;;;;;;2.75;1.80;;;;;;;;;;4997217;28;20287;-60
2022/06/01 12:08:23;;;;;;;2.00;1.80;;;;;;;;;;4996845;28;20217;-60
2022/06/01 12:10:52;;;;;;;2.72;1.88;;;;;;;;;;4992802;28;20803;-60
2022/06/01 12:13:26;;;;;;;4.68;1.88;;;;;;;;;;4993858;28;20213;-59
2022/06/01 12:16:10;;;;;;;1.83;1.67;;;;;;;;;;4992141;28;20574;-60
2022/06/01 12:18:36;;;;;;;2.13;1.83;;;;;;;;;;4996327;28;20196;-59
2022/06/01 12:21:22;;;;;;;4.45;1.83;;;;;;;;;;4997244;28;20193;-59
2022/06/01 12:29:33;;;;;;;1.73;1.63;;;;;;;;;;4996067;28;20243;-59
2022/06/01 12:31:59;;;;;;;2.03;1.55;;;;;;;;;;4995077;28;20659;-60
2022/06/01 12:34:25;;;;;;;1.65;1.55;;;;;;;;;;4995468;28;20231;-59
2022/06/01 12:37:10;;;;;;;2.13;1.70;;;;;;;;;;4993355;28;20274;-59
2022/06/01 12:39:39;;;;;;;2.13;1.65;;;;;;;;;;4996602;28;20178;-60
2022/06/01 12:42:08;;;;;;;2.35;1.60;;;;;;;;;;4990279;28;20212;-59
2022/06/01 12:44:35;;;;;;;2.22;1.58;;;;;;;;;;4995817;28;20660;-60
2022/06/01 12:47:01;;;;;;;1.40;1.30;;;;;;;;;;4997820;28;20190;-59
2022/06/01 12:49:29;;;;;;;4.03;1.70;;;;;;;;;;4999258;28;20178;-60
2022/06/01 12:51:55;;;;;;;1.88;1.50;;;;;;;;;;4997059;28;20202;-60
2022/06/01 12:54:25;;;;;;;1.70;1.30;;;;;;;;;;4991553;28;20729;-60
2022/06/01 12:56:51;;;;;;;1.70;1.52;;;;;;;;;;4997597;28;20277;-61
2022/06/01 12:59:18;;;;;;;2.13;1.60;;;;;;;;;;4994519;28;20182;-60
2022/06/01 13:01:44;;;;;;;2.92;1.60;;;;;;;;;;4995390;28;20327;-60
2022/06/01 13:04:10;;;;;;;3.25;1.77;;;;;;;;;;4993967;28;20238;-60
2022/06/01 13:06:39;;;;;;;3.80;1.80;;;;;;;;;;4998176;28;20318;-60
2022/06/01 13:09:09;;;;;;;2.33;1.60;;;;;;;;;;4995802;28;20213;-57
2022/06/01 13:11:35;;;;;;;2.08;1.50;;;;;;;;;;4997084;28;20226;-60
2022/06/01 13:14:01;;;;;;;2.95;1.60;;;;;;;;;;4996175;28;20229;-60
2022/06/01 13:16:38;;;;;;;2.60;1.35;;;;;;;;;;4995774;28;20186;-59
2022/06/01 13:19:16;;;;;;;1.60;1.35;;;;;;;;;;4996283;28;20181;-60
2022/06/01 13:21:41;;;;;;;3.10;1.30;;;;;;;;;;4992075;28;20192;-60
2022/06/01 13:24:08;;;;;;;1.45;1.25;;;;;;;;;;4998440;28;20186;-59
2022/06/01 13:26:35;;;;;;;1.65;1.30;;;;;;;;;;4995679;28;20616;-60
2022/06/01 13:29:12;;;;;;;5.18;1.30;;;;;;;;;;4991385;28;20214;-59
2022/06/01 13:31:38;;;;;;;3.20;1.48;;;;;;;;;;4996663;28;20300;-64
2022/06/01 13:34:05;;;;;;;2.35;1.23;;;;;;;;;;5002215;28;20745;-59
2022/06/01 13:36:32;;;;;;;2.78;1.23;;;;;;;;;;4984566;28;20531;-59
2022/06/01 13:39:02;;;;;;;2.58;1.80;;;;;;;;;;4996738;28;20226;-59
2022/06/01 13:41:43;;;;;;;3.00;1.83;;;;;;;;;;4988234;28;20729;-59
2022/06/01 13:44:09;;;;;;;2.55;1.65;;;;;;;;;;4976153;28;20873;-59
2022/06/01 13:46:36;;;;;;;30.08;4.05;;;;;;;;;;4985461;28;20192;-59
2022/06/01 13:49:03;;;;;;;3.17;1.67;;;;;;;;;;4979173;28;20194;-59
2022/06/01 13:51:47;;;;;;;1.92;1.75;;;;;;;;;;4989983;28;20619;-59
2022/06/01 13:54:22;;;;;;;2.63;1.67;;;;;;;;;;4995652;28;20221;-59
2022/06/01 13:56:48;;;;;;;6.47;2.22;;;;;;;;;;4986118;28;20189;-59
2022/06/01 13:59:27;;;;;;;5.35;2.40;;;;;;;;;;4977108;28;21771;-59
2022/06/01 14:01:58;;;;;;;2.08;1.88;;;;;;;;;;4988046;28;20534;-61
2022/06/01 14:04:28;;;;;;;2.28;2.08;;;;;;;;;;4988909;28;20730;-59
2022/06/01 14:06:55;;;;;;;12.02;2.33;;;;;;;;;;4990869;28;20190;-59
2022/06/01 14:09:28;;;;;;;2.88;1.90;;;;;;;;;;4989486;28;20908;-59
2022/06/01 14:11:54;;;;;;;3.50;2.90;;;;;;;;;;4985786;28;20202;-56
2022/06/01 14:14:22;;;;;;;3.47;3.17;;;;;;;;;;4990265;28;20192;-56
2022/06/01 14:16:49;;;;;;;3.30;3.10;;;;;;;;;;4992684;28;20194;-56
2022/06/01 14:19:15;;;;;;;2.90;2.70;;;;;;;;;;4986582;28;20182;-56
2022/06/01 14:21:41;;;;;;;3.10;2.83;;;;;;;;;;4993209;28;20228;-56
2022/06/01 14:24:07;;;;;;;3.15;2.88;;;;;;;;;;4985683;28;20675;-56
2022/06/01 14:29:17;;;;;;;2.47;2.15;;;;;;;;;;4983083;28;20194;-56
2022/06/01 14:31:43;;;;;;;4.57;2.78;;;;;;;;;;4985769;28;20569;-57
2022/06/01 14:34:11;;;;;;;2.10;2.00;;;;;;;;;;4981331;28;20648;-56
2022/06/01 14:36:37;;;;;;;2.70;2.50;;;;;;;;;;4992705;28;20556;-56
2022/06/01 14:39:03;;;;;;;2.70;2.50;;;;;;;;;;4994492;28;20188;-56
2022/06/01 14:41:30;;;;;;;2.80;2.60;;;;;;;;;;4982809;28;20270;-56
2022/06/01 14:43:57;;;;;;;3.13;2.90;;;;;;;;;;4992219;28;20245;-56
2022/06/01 14:46:23;;;;;;;4.95;3.00;;;;;;;;;;4991088;28;20853;-56
2022/06/01 14:48:49;;;;;;;3.40;2.90;;;;;;;;;;4988879;28;20185;-56
2022/06/01 14:51:16;;;;;;;3.30;3.10;;;;;;;;;;4997633;28;20259;-56
2022/06/01 14:53:42;;;;;;;3.45;3.15;;;;;;;;;;4999332;28;20193;-56
2022/06/01 14:56:08;;;;;;;3.08;2.88;;;;;;;;;;4992561;28;20236;-56
2022/06/01 14:58:34;;;;;;;3.30;3.10;;;;;;;;;;4981669;28;20198;-55
2022/06/01 15:01:10;;;;;;;3.08;2.72;;;;;;;;;;4991066;28;20197;-56
2022/06/01 15:03:38;;;;;;;2.60;2.40;;;;;;;;;;4987626;28;20216;-55
2022/06/01 15:06:04;;;;;;;2.83;2.60;;;;;;;;;;4991777;28;20231;-55
2022/06/01 15:08:30;;;;;;;2.67;2.50;;;;;;;;;;4995926;28;20200;-55
2022/06/01 15:10:56;;;;;;;3.17;2.80;;;;;;;;;;4991500;28;20273;-55
2022/06/01 15:13:22;;;;;;;4.17;3.30;;;;;;;;;;4992853;28;20566;-55
2022/06/01 15:15:48;;;;;;;3.37;2.80;;;;;;;;;;4987921;28;20194;-56
2022/06/01 15:18:14;;;;;;;2.73;2.43;;;;;;;;;;4986063;28;20190;-56
2022/06/01 15:20:40;;;;;;;3.03;2.77;;;;;;;;;;4991602;28;20188;-56
2022/06/01 15:23:06;;;;;;;2.60;2.40;;;;;;;;;;4988850;28;20198;-57